Time;durP1;ratioP1;P1;durP2;ratioP2;P2;SDS_P1;SDS_P2;PMS_P1;PMS_P2;Temp;Humidity;BMP_temperature;BMP_pressure;BME280_temperature;BME280_humidity;BME280_pressure;Samples;Min_cycle;Max_cycle;Signal;HPM_P1;HPM_P2
2022/03/17 00:00:23;;;;;;;0.70;0.70;;;5.30;71.40;;;4.14;56.49;95868.00;5035410;28;20192;-83
2022/03/17 00:02:50;;;;;;;0.60;0.60;;;5.30;71.40;;;4.27;56.61;95893.72;4998184;28;20297;-84
2022/03/17 00:05:18;;;;;;;0.60;0.60;;;5.30;71.50;;;4.28;56.58;95900.59;5015293;28;20585;-84
2022/03/17 00:07:46;;;;;;;0.70;0.70;;;5.30;71.60;;;4.29;56.91;95897.03;5010922;28;20201;-84
2022/03/17 00:10:15;;;;;;;0.70;0.70;;;5.30;71.70;;;4.30;57.15;95899.50;4995421;28;20229;-84
2022/03/17 00:12:47;;;;;;;0.70;0.70;;;5.30;71.90;;;4.29;56.90;95897.84;5015191;28;20580;-84
2022/03/17 00:15:15;;;;;;;0.60;0.60;;;5.30;72.30;;;4.28;56.99;95887.59;5009759;28;20567;-84
2022/03/17 00:17:43;;;;;;;0.70;0.70;;;5.40;71.80;;;4.30;56.83;95889.09;4999133;28;20300;-83
2022/03/17 00:20:11;;;;;;;0.70;0.70;;;5.40;71.80;;;4.30;56.81;95896.09;4999187;28;20232;-84
2022/03/17 00:22:39;;;;;;;0.60;0.60;;;5.40;71.90;;;4.31;57.05;95888.16;5033890;28;20228;-84
2022/03/17 00:25:08;;;;;;;0.60;0.60;;;5.40;72.10;;;4.33;56.89;95888.03;5032774;28;20737;-84
2022/03/17 00:27:35;;;;;;;0.70;0.70;;;5.40;72.10;;;4.34;57.09;95881.88;5010503;28;20190;-84
2022/03/17 00:30:05;;;;;;;0.60;0.60;;;5.40;72.00;;;4.34;56.98;95879.28;4999240;28;20233;-83
2022/03/17 00:32:32;;;;;;;0.60;0.60;;;5.40;72.00;;;4.32;56.80;95878.59;4998851;28;20209;-84
2022/03/17 00:37:46;;;;;;;0.65;0.65;;;5.40;71.80;;;4.29;56.78;95866.69;5035205;28;20343;-85
2022/03/17 00:40:14;;;;;;;0.65;0.65;;;5.40;71.80;;;4.27;56.69;95857.38;5018509;28;20247;-84
2022/03/17 00:42:41;;;;;;;0.60;0.60;;;5.40;71.80;;;4.25;56.81;95848.91;4998766;28;20196;-83
2022/03/17 00:45:12;;;;;;;0.70;0.70;;;5.30;71.70;;;4.25;56.94;95854.09;5028596;28;20236;-84
2022/03/17 00:47:40;;;;;;;0.70;0.70;;;5.30;71.80;;;4.21;56.75;95852.69;4999689;28;20201;-85
2022/03/17 00:50:10;;;;;;;0.70;0.70;;;5.30;71.70;;;4.20;56.89;95854.50;5014621;28;20229;-84
2022/03/17 00:52:37;;;;;;;0.80;0.80;;;5.30;71.90;;;4.13;56.83;95851.56;4999039;28;20201;-84
2022/03/17 00:55:06;;;;;;;0.70;0.70;;;5.30;71.80;;;4.17;57.11;95862.53;5026299;28;20215;-85
2022/03/17 00:57:36;;;;;;;0.70;0.70;;;5.30;71.90;;;4.11;56.97;95855.25;5000527;28;20206;-84
2022/03/17 01:00:09;;;;;;;0.80;0.80;;;5.30;72.20;;;4.02;57.20;95843.88;5001394;28;20307;-84
2022/03/17 01:02:37;;;;;;;0.70;0.70;;;5.30;72.60;;;4.16;57.41;95866.06;5034296;28;20259;-84
2022/03/17 01:05:04;;;;;;;0.80;0.80;;;5.30;72.20;;;4.17;57.54;95867.72;5027029;28;20284;-84
2022/03/17 01:07:32;;;;;;;0.70;0.70;;;5.20;72.30;;;4.15;57.57;95860.06;4998746;28;20725;-85
2022/03/17 01:10:00;;;;;;;0.70;0.70;;;5.20;72.50;;;4.22;57.42;95873.34;4998086;28;20217;-84
2022/03/17 01:12:27;;;;;;;0.60;0.60;;;5.20;72.50;;;4.17;57.52;95870.31;5017364;28;20197;-85
2022/03/17 01:14:54;;;;;;;0.60;0.60;;;5.30;72.20;;;4.13;57.65;95869.75;5015657;28;20333;-85
2022/03/17 01:17:22;;;;;;;0.70;0.70;;;5.30;72.10;;;4.16;57.31;95881.66;5017660;28;20208;-85
2022/03/17 01:19:49;;;;;;;0.60;0.60;;;5.30;72.20;;;4.12;57.30;95869.88;5013687;28;20224;-86
2022/03/17 01:22:16;;;;;;;0.60;0.60;;;5.20;72.20;;;4.10;57.34;95863.97;5013960;28;20236;-85
2022/03/17 01:24:45;;;;;;;0.70;0.70;;;5.20;72.20;;;4.09;57.77;95870.13;5020422;28;20693;-85
2022/03/17 01:27:12;;;;;;;0.60;0.60;;;5.20;72.20;;;4.07;57.62;95872.84;4998012;28;20205;-86
2022/03/17 01:29:41;;;;;;;0.70;0.70;;;5.20;72.20;;;4.06;57.06;95868.59;5013926;28;20221;-86
2022/03/17 01:32:08;;;;;;;0.70;0.70;;;5.20;72.50;;;4.04;57.76;95869.69;5010523;28;20251;-85
2022/03/17 01:34:35;;;;;;;0.70;0.70;;;5.10;72.50;;;4.09;57.73;95878.75;5009683;28;20248;-85
2022/03/17 01:37:03;;;;;;;0.60;0.60;;;5.20;72.50;;;4.11;57.72;95866.47;5000521;28;20201;-85
2022/03/17 01:39:30;;;;;;;0.60;0.60;;;5.20;72.50;;;4.15;57.72;95859.22;5013968;28;20706;-85
2022/03/17 01:42:03;;;;;;;0.68;0.68;;;5.20;72.50;;;4.16;57.56;95853.09;5013790;28;20292;-85
2022/03/17 01:44:30;;;;;;;0.70;0.70;;;5.20;72.50;;;4.16;57.80;95853.09;5013700;28;20248;-85
2022/03/17 01:49:43;;;;;;;0.60;0.60;;;5.20;72.50;;;4.09;57.71;95846.75;5009126;28;20715;-85
2022/03/17 01:52:10;;;;;;;0.60;0.60;;;5.20;72.60;;;4.10;57.54;95849.25;4997667;28;20271;-86
2022/03/17 01:54:38;;;;;;;0.60;0.60;;;5.20;72.50;;;4.04;57.45;95847.16;5024169;28;20686;-85
2022/03/17 01:57:08;;;;;;;0.70;0.70;;;5.20;72.50;;;3.99;57.44;95837.16;5026254;28;20204;-85
2022/03/17 01:59:38;;;;;;;0.60;0.60;;;5.20;72.50;;;4.05;57.52;95850.56;5017067;28;20581;-85
2022/03/17 02:02:08;;;;;;;0.65;0.65;;;5.10;72.50;;;4.01;57.39;95858.59;5012122;28;20675;-84
2022/03/17 02:04:37;;;;;;;0.70;0.70;;;5.10;72.50;;;4.00;57.71;95859.56;4997501;28;20244;-85
2022/03/17 02:07:05;;;;;;;0.70;0.70;;;5.10;72.50;;;4.00;57.53;95867.38;4998686;28;20196;-85
2022/03/17 02:09:34;;;;;;;0.70;0.70;;;5.10;72.60;;;3.95;57.58;95856.50;5016503;28;20228;-86
2022/03/17 02:14:58;;;;;;;0.77;0.77;;;5.10;72.50;;;3.88;57.50;95864.94;5021179;28;20221;-85
2022/03/17 02:17:31;;;;;;;0.70;0.70;;;5.10;72.30;;;3.76;57.43;95861.56;5013172;28;20547;-85
2022/03/17 02:20:03;;;;;;;0.60;0.60;;;5.00;72.20;;;3.78;57.58;95876.06;5009395;28;20220;-84
2022/03/17 02:22:30;;;;;;;0.60;0.60;;;5.00;72.40;;;3.78;57.66;95885.63;5032573;28;20234;-85
2022/03/17 02:27:46;;;;;;;0.80;0.80;;;4.90;72.30;;;3.75;57.94;95876.34;5027209;28;20197;-85
2022/03/17 02:30:20;;;;;;;0.70;0.70;;;4.90;72.30;;;3.79;57.75;95885.50;4997010;28;20209;-84
2022/03/17 02:32:48;;;;;;;0.70;0.70;;;4.90;73.20;;;3.82;58.05;95869.69;4988168;28;20221;-86
2022/03/17 02:35:22;;;;;;;0.70;0.70;;;4.90;72.30;;;3.80;57.82;95868.19;4996583;28;20599;-85
2022/03/17 02:37:50;;;;;;;0.70;0.70;;;4.90;72.80;;;3.81;57.98;95856.84;4997479;28;20204;-84
2022/03/17 02:40:18;;;;;;;0.70;0.70;;;4.90;72.30;;;3.77;57.75;95856.28;4996616;28;20578;-84
2022/03/17 02:42:45;;;;;;;0.70;0.70;;;4.90;72.30;;;3.76;57.84;95848.59;5015763;28;20698;-85
2022/03/17 02:45:13;;;;;;;0.70;0.70;;;4.90;72.30;;;3.70;57.77;95834.38;5015787;28;20228;-85
2022/03/17 02:47:42;;;;;;;0.70;0.70;;;4.80;72.20;;;3.72;57.87;95840.25;5001259;28;20256;-85
2022/03/17 02:50:10;;;;;;;0.70;0.70;;;4.80;72.20;;;3.72;57.95;95848.03;4987392;28;20239;-85
2022/03/17 02:52:38;;;;;;;0.80;0.80;;;4.80;72.20;;;3.69;57.95;95846.50;5032305;28;20197;-84
2022/03/17 02:55:08;;;;;;;0.70;0.70;;;4.80;72.20;;;3.67;57.89;95852.78;5009977;28;20221;-85
2022/03/17 02:57:36;;;;;;;0.70;0.70;;;4.80;72.20;;;3.63;57.86;95854.00;5012738;28;20209;-85
2022/03/17 03:00:07;;;;;;;0.70;0.70;;;4.80;72.20;;;3.60;58.14;95855.06;5028820;28;20229;-85
2022/03/17 03:02:34;;;;;;;0.68;0.68;;;4.80;72.30;;;3.59;58.37;95848.22;5008763;28;20202;-85
2022/03/17 03:05:04;;;;;;;0.60;0.60;;;4.80;72.20;;;3.44;58.36;95831.31;5014131;28;20740;-85
2022/03/17 03:07:31;;;;;;;0.60;0.60;;;4.70;72.30;;;3.57;58.18;95857.09;4994020;28;20655;-86
2022/03/17 03:09:58;;;;;;;0.70;0.70;;;4.70;72.40;;;3.57;58.30;95854.50;4997030;28;20213;-86
2022/03/17 03:12:25;;;;;;;0.70;0.70;;;4.70;72.50;;;3.53;58.09;95848.72;5015388;28;20200;-85
2022/03/17 03:14:53;;;;;;;0.70;0.70;;;4.70;72.40;;;3.53;58.21;95846.94;5015117;28;20315;-86
2022/03/17 03:17:23;;;;;;;0.68;0.68;;;4.70;72.50;;;3.47;58.40;95838.84;5014528;28;20181;-84
2022/03/17 03:19:51;;;;;;;0.70;0.70;;;4.60;72.50;;;3.47;58.33;95851.84;5008054;28;20227;-85
2022/03/17 03:22:18;;;;;;;0.70;0.70;;;4.60;72.50;;;3.52;58.30;95855.69;4995946;28;20847;-85
2022/03/17 03:24:46;;;;;;;0.60;0.60;;;4.60;72.60;;;3.45;58.39;95857.13;4996722;28;20221;-85
2022/03/17 03:27:13;;;;;;;0.60;0.60;;;4.60;72.60;;;3.43;58.47;95853.00;5012175;28;20201;-85
2022/03/17 03:29:40;;;;;;;0.60;0.60;;;4.60;72.70;;;3.43;58.28;95859.03;4995855;28;20316;-85
2022/03/17 03:32:08;;;;;;;0.80;0.80;;;4.60;72.70;;;3.44;58.25;95858.09;4997994;28;20192;-85
2022/03/17 03:34:36;;;;;;;0.80;0.80;;;4.60;72.80;;;3.25;58.17;95824.19;5019394;28;20737;-85
2022/03/17 03:39:55;;;;;;;0.60;0.60;;;4.60;72.80;;;3.37;58.67;95859.53;4998088;28;20311;-85
2022/03/17 03:42:24;;;;;;;0.70;0.70;;;4.50;73.10;;;3.40;58.37;95859.25;5005214;28;20197;-85
2022/03/17 03:44:52;;;;;;;0.60;0.60;;;4.50;72.70;;;3.38;58.63;95868.13;5013229;28;20262;-85
2022/03/17 03:47:19;;;;;;;0.70;0.70;;;4.50;72.60;;;3.33;58.42;95865.88;5026509;28;20197;-85
2022/03/17 03:49:46;;;;;;;0.70;0.70;;;4.50;72.70;;;3.36;58.51;95863.06;5015208;28;20216;-85
2022/03/17 03:52:14;;;;;;;0.70;0.70;;;4.50;72.70;;;3.34;58.61;95867.53;5006527;28;20202;-84
2022/03/17 03:54:42;;;;;;;0.70;0.70;;;4.50;72.80;;;3.32;58.62;95870.25;4991139;28;20221;-85
2022/03/17 03:57:09;;;;;;;0.73;0.73;;;4.50;72.80;;;3.32;58.40;95869.44;5011611;28;20247;-85
2022/03/17 03:59:38;;;;;;;0.70;0.70;;;4.50;72.80;;;3.22;58.38;95861.56;5014712;28;20239;-85
2022/03/17 04:02:10;;;;;;;0.80;0.80;;;4.40;72.80;;;3.30;58.60;95879.94;5027541;28;20204;-85
2022/03/17 04:04:42;;;;;;;0.75;0.75;;;4.40;73.20;;;3.22;58.60;95865.94;4995462;28;20625;-83
2022/03/17 04:07:11;;;;;;;0.70;0.70;;;4.40;73.00;;;3.22;58.38;95864.16;4995837;28;20237;-85
2022/03/17 04:09:42;;;;;;;0.70;0.70;;;4.40;73.00;;;3.27;58.65;95879.34;5011715;28;20228;-86
2022/03/17 04:12:12;;;;;;;0.60;0.60;;;4.40;73.00;;;3.27;58.35;95877.59;5020438;28;20199;-85
2022/03/17 04:14:40;;;;;;;0.70;0.70;;;4.40;72.90;;;3.26;58.61;95873.34;4995276;28;20731;-86
2022/03/17 04:17:12;;;;;;;0.60;0.60;;;4.40;72.80;;;3.18;58.70;95876.53;4999702;28;20197;-85
2022/03/17 04:19:39;;;;;;;0.65;0.65;;;4.40;72.80;;;3.22;58.26;95886.69;5015310;28;20315;-85
2022/03/17 04:22:07;;;;;;;0.70;0.70;;;4.40;73.70;;;3.22;58.29;95881.50;5010727;28;20209;-86
2022/03/17 04:24:34;;;;;;;0.70;0.70;;;4.40;72.90;;;3.19;58.61;95878.19;5006698;28;20216;-84
2022/03/17 04:27:02;;;;;;;0.70;0.70;;;4.30;72.80;;;3.00;58.67;95849.50;5037455;28;20228;-84
2022/03/17 04:29:29;;;;;;;0.60;0.60;;;4.30;72.80;;;3.05;58.50;95860.31;5011284;28;20216;-85
2022/03/17 04:31:56;;;;;;;0.70;0.70;;;4.30;72.90;;;3.15;58.58;95897.53;4997876;28;20296;-85
2022/03/17 04:34:23;;;;;;;0.70;0.70;;;4.30;72.80;;;3.14;58.66;95898.47;5021234;28;20278;-86
2022/03/17 04:36:51;;;;;;;0.70;0.70;;;4.30;72.90;;;3.14;58.71;95895.06;5018458;28;20203;-85
2022/03/17 04:39:18;;;;;;;0.70;0.70;;;4.30;72.90;;;3.14;58.77;95893.28;5015303;28;20777;-85
2022/03/17 04:41:45;;;;;;;0.70;0.70;;;4.30;73.00;;;3.14;59.03;95906.25;4993458;28;20205;-84
2022/03/17 04:44:13;;;;;;;0.70;0.70;;;4.20;73.00;;;3.14;58.73;95902.84;5014578;28;20220;-83
2022/03/17 04:46:40;;;;;;;0.70;0.70;;;4.20;73.00;;;3.12;58.61;95895.16;5017420;28;20213;-85
2022/03/17 04:49:09;;;;;;;0.60;0.60;;;4.20;73.00;;;3.11;58.67;95901.28;5034157;28;20221;-85
2022/03/17 04:51:37;;;;;;;0.70;0.70;;;4.30;74.10;;;3.08;58.67;95901.56;5014705;28;20202;-85
2022/03/17 04:54:05;;;;;;;0.70;0.70;;;4.20;73.00;;;3.09;58.85;95900.63;5015113;28;20276;-85
2022/03/17 04:56:32;;;;;;;0.70;0.70;;;4.20;73.00;;;3.09;58.84;95895.44;5031174;28;20244;-85
2022/03/17 04:58:59;;;;;;;0.80;0.80;;;4.20;73.10;;;3.09;59.00;95899.78;5017919;28;20586;-84
2022/03/17 05:01:26;;;;;;;0.80;0.80;;;4.20;73.10;;;3.07;58.83;95906.88;5017398;28;20197;-86
2022/03/17 05:03:53;;;;;;;0.80;0.80;;;4.20;73.10;;;3.08;58.56;95906.72;5016748;28;20224;-85
2022/03/17 05:06:21;;;;;;;0.70;0.70;;;4.20;73.20;;;3.07;58.89;95901.69;5017478;28;20219;-84
2022/03/17 05:08:48;;;;;;;0.70;0.70;;;4.20;73.20;;;3.08;58.87;95904.16;5017838;28;20216;-85
2022/03/17 05:11:15;;;;;;;0.60;0.60;;;4.20;73.30;;;3.09;59.01;95900.63;5014451;28;20240;-85
2022/03/17 05:13:43;;;;;;;0.70;0.70;;;4.20;73.30;;;2.98;59.05;95883.31;4998083;28;20217;-85
2022/03/17 05:16:10;;;;;;;0.70;0.70;;;4.20;73.30;;;3.08;58.74;95904.16;5000191;28;20223;-86
2022/03/17 05:18:38;;;;;;;0.80;0.80;;;4.20;73.20;;;3.08;58.82;95903.34;5034205;28;20212;-85
2022/03/17 05:21:06;;;;;;;0.70;0.70;;;4.20;74.20;;;3.10;58.96;95906.59;5033040;28;20196;-86
2022/03/17 05:23:33;;;;;;;0.70;0.70;;;4.20;73.40;;;3.07;58.86;95899.91;5024622;28;20290;-85
2022/03/17 05:26:02;;;;;;;0.70;0.70;;;4.20;73.40;;;3.08;58.85;95898.16;5017409;28;20595;-85
2022/03/17 05:28:29;;;;;;;0.80;0.80;;;4.20;73.40;;;3.08;58.68;95904.16;5031243;28;20224;-84
2022/03/17 05:30:56;;;;;;;0.80;0.80;;;4.20;73.40;;;3.09;59.08;95902.38;4981778;28;20210;-85
2022/03/17 05:33:24;;;;;;;0.70;0.70;;;4.20;73.40;;;3.11;58.92;95900.47;5013825;28;20213;-84
2022/03/17 05:35:51;;;;;;;0.63;0.63;;;4.10;73.30;;;3.08;58.98;95908.50;5029129;28;20235;-85
2022/03/17 05:38:18;;;;;;;0.68;0.68;;;4.20;73.40;;;3.11;58.88;95905.66;5033645;28;20219;-85
2022/03/17 05:40:45;;;;;;;0.68;0.68;;;4.20;73.50;;;3.02;58.84;95891.66;5008357;28;20259;-85
2022/03/17 05:43:13;;;;;;;0.73;0.73;;;4.20;73.50;;;3.09;59.05;95900.63;5006089;28;20199;-85
2022/03/17 05:45:41;;;;;;;0.80;0.80;;;4.20;73.60;;;3.20;58.82;95921.31;4998773;28;20201;-84
2022/03/17 05:48:09;;;;;;;0.80;0.80;;;4.20;73.60;;;3.20;58.89;95908.34;5013093;28;20201;-86
2022/03/17 05:50:41;;;;;;;0.60;0.60;;;4.20;73.60;;;3.21;59.24;95914.38;5015780;28;20224;-85
2022/03/17 05:53:09;;;;;;;0.70;0.70;;;4.20;73.80;;;3.25;59.12;95914.94;5029121;28;20198;-85
2022/03/17 05:55:37;;;;;;;0.70;0.70;;;4.30;73.70;;;3.28;58.99;95915.50;5013925;28;20200;-85
2022/03/17 05:58:06;;;;;;;0.70;0.70;;;4.30;73.80;;;3.33;59.13;95912.56;4997024;28;20225;-85
2022/03/17 06:00:35;;;;;;;0.70;0.70;;;4.30;73.80;;;3.34;59.04;95912.47;4997599;28;20240;-85
2022/03/17 06:03:06;;;;;;;0.77;0.77;;;4.30;73.80;;;3.39;58.97;95912.06;5030848;28;20258;-85
2022/03/17 06:05:34;;;;;;;0.60;0.60;;;4.30;73.90;;;3.31;59.07;95896.31;5016534;28;20224;-85
2022/03/17 06:08:06;;;;;;;0.60;0.60;;;4.40;73.80;;;3.45;58.84;95919.34;5033174;28;20200;-85
2022/03/17 06:10:34;;;;;;;0.70;0.70;;;4.40;73.90;;;3.51;59.46;95924.06;5022277;28;20197;-85
2022/03/17 06:13:04;;;;;;;0.68;0.68;;;4.40;73.80;;;3.56;59.34;95931.47;5013129;28;20267;-84
2022/03/17 06:15:35;;;;;;;0.60;0.60;;;4.50;74.00;;;3.60;59.07;95929.47;5031258;28;20209;-85
2022/03/17 06:18:06;;;;;;;0.80;0.80;;;4.50;73.90;;;3.60;58.75;95917.31;5016447;28;20235;-85
2022/03/17 06:20:36;;;;;;;0.70;0.70;;;4.50;74.10;;;3.65;59.09;95922.13;5016510;28;20201;-84
2022/03/17 06:23:05;;;;;;;0.80;0.80;;;4.60;74.10;;;3.68;59.04;95922.69;5016122;28;20200;-84
2022/03/17 06:25:35;;;;;;;0.70;0.70;;;4.60;74.10;;;3.72;59.31;95923.28;5032929;28;20650;-85
2022/03/17 06:28:08;;;;;;;0.70;0.70;;;4.60;74.10;;;3.83;59.17;95928.44;5013454;28;20292;-86
2022/03/17 06:30:37;;;;;;;0.70;0.70;;;4.70;74.20;;;3.75;59.05;95911.81;4996902;28;20197;-85
2022/03/17 06:33:06;;;;;;;0.68;0.68;;;4.70;74.10;;;3.94;58.93;95934.50;5012833;28;20194;-86
2022/03/17 06:35:34;;;;;;;0.70;0.70;;;4.80;74.20;;;3.99;59.07;95924.56;5013175;28;20235;-84
2022/03/17 06:38:04;;;;;;;0.70;0.70;;;4.80;74.10;;;4.05;59.26;95924.06;5012780;28;20206;-85
2022/03/17 06:40:32;;;;;;;0.70;0.70;;;4.80;74.30;;;4.11;58.92;95918.41;4996639;28;20292;-85
2022/03/17 06:43:01;;;;;;;0.60;0.60;;;4.90;74.20;;;4.05;59.13;95910.28;5012813;28;20288;-86
2022/03/17 06:45:31;;;;;;;0.68;0.68;;;5.00;74.30;;;4.23;59.12;95926.94;5031061;28;20203;-86
2022/03/17 06:47:58;;;;;;;0.63;0.63;;;5.00;74.30;;;4.29;59.12;95926.41;5016155;28;20264;-85
2022/03/17 06:50:26;;;;;;;0.70;0.70;;;5.00;74.20;;;4.37;59.02;95931.00;5016262;28;20262;-84
2022/03/17 06:52:55;;;;;;;0.70;0.70;;;5.10;74.40;;;4.43;59.07;95933.06;5000304;28;20213;-85
2022/03/17 06:55:22;;;;;;;0.70;0.70;;;5.20;74.40;;;4.51;59.12;95936.81;4980548;28;20217;-85
2022/03/17 06:57:49;;;;;;;0.70;0.70;;;5.30;74.40;;;4.55;59.40;95931.19;4982758;28;20201;-85
2022/03/17 07:00:19;;;;;;;0.70;0.70;;;5.30;74.40;;;4.63;59.05;95938.38;5012226;28;20237;-84
2022/03/17 07:02:46;;;;;;;0.70;0.70;;;5.30;74.40;;;4.71;59.10;95941.16;5012424;28;20196;-85
2022/03/17 07:05:15;;;;;;;0.80;0.80;;;5.40;74.40;;;4.77;59.36;95932.84;5013309;28;20216;-85
2022/03/17 07:07:43;;;;;;;0.60;0.60;;;5.50;74.40;;;4.85;59.08;95946.94;5016027;28;20260;-85
2022/03/17 07:10:12;;;;;;;0.80;0.80;;;5.60;74.50;;;4.91;59.10;95936.03;5014329;28;20225;-85
2022/03/17 07:12:41;;;;;;;0.70;0.70;;;5.60;74.40;;;4.98;59.25;95939.75;4999072;28;20204;-86
2022/03/17 07:15:10;;;;;;;0.77;0.77;;;5.60;74.40;;;5.05;59.07;95943.44;5032349;28;20216;-85
2022/03/17 07:17:40;;;;;;;0.60;0.60;;;5.70;74.50;;;5.16;59.01;95949.53;5008999;28;20296;-85
2022/03/17 07:20:16;;;;;;;0.50;0.50;;;5.80;74.60;;;5.20;58.80;95930.91;4980029;28;20252;-85
2022/03/17 07:22:49;;;;;;;0.60;0.60;;;5.80;74.70;;;5.29;58.82;95939.69;4995794;28;20192;-86
2022/03/17 07:25:18;;;;;;;0.60;0.60;;;5.90;74.60;;;5.37;59.31;95936.41;4996614;28;20225;-85
2022/03/17 07:27:48;;;;;;;0.80;0.80;;;6.00;74.50;;;5.44;58.92;95938.38;5014111;28;20233;-85
2022/03/17 07:30:18;;;;;;;0.60;0.60;;;6.00;74.40;;;5.53;58.91;95943.69;5028135;28;20298;-85
2022/03/17 07:32:55;;;;;;;0.70;0.70;;;6.10;74.50;;;5.60;58.95;95947.41;5045264;28;20225;-85
2022/03/17 07:35:23;;;;;;;0.60;0.60;;;6.20;74.70;;;5.68;58.75;95944.16;5012439;28;20268;-85
2022/03/17 07:37:50;;;;;;;0.60;0.60;;;6.20;74.40;;;5.74;58.59;95946.22;4998895;28;20243;-86
2022/03/17 07:40:17;;;;;;;0.60;0.60;;;6.30;74.40;;;5.81;58.90;95939.50;5015301;28;20220;-85
2022/03/17 07:42:44;;;;;;;0.50;0.50;;;6.40;74.40;;;5.86;59.01;95945.13;5015616;28;20192;-86
2022/03/17 07:45:27;;;;;;;0.60;0.60;;;6.40;74.40;;;5.95;58.73;95953.06;5017843;28;20196;-85
2022/03/17 07:48:12;;;;;;;0.50;0.50;;;6.50;74.30;;;5.86;58.75;95920.84;5017293;28;20244;-86
2022/03/17 07:50:57;;;;;;;0.63;0.63;;;6.60;74.40;;;6.05;58.54;95946.94;5012098;28;20189;-86
2022/03/17 07:53:25;;;;;;;0.70;0.70;;;6.70;74.30;;;6.07;58.83;95934.56;4995518;28;20716;-85
2022/03/17 07:55:54;;;;;;;0.70;0.70;;;6.70;74.30;;;6.15;58.42;95949.53;4996060;28;20206;-86
2022/03/17 07:58:26;;;;;;;0.57;0.57;;;6.70;74.20;;;6.20;58.43;95949.09;4996000;28;20348;-86
2022/03/17 08:00:55;;;;;;;0.60;0.60;;;6.80;74.30;;;6.26;58.72;95953.75;5011467;28;20256;-85
2022/03/17 08:03:24;;;;;;;0.60;0.60;;;6.80;74.30;;;6.33;59.22;95954.03;5011774;28;20686;-84
2022/03/17 08:05:52;;;;;;;0.70;0.70;;;6.90;75.20;;;6.41;58.58;95951.56;5013896;28;20656;-84
2022/03/17 08:08:20;;;;;;;0.60;0.60;;;6.90;74.30;;;6.50;58.93;95949.88;4999251;28;20235;-86
2022/03/17 08:10:47;;;;;;;0.50;0.50;;;7.00;74.40;;;6.56;58.73;95957.13;5015593;28;20204;-86
2022/03/17 08:13:14;;;;;;;0.50;0.50;;;7.00;74.40;;;6.67;58.58;95959.56;5016088;28;20344;-85
2022/03/17 08:15:42;;;;;;;0.55;0.55;;;7.20;74.60;;;6.77;58.84;95964.75;4999205;28;20202;-85
2022/03/17 08:18:10;;;;;;;0.55;0.55;;;7.20;74.60;;;6.85;58.70;95964.06;4998952;28;20204;-86
2022/03/17 08:20:40;;;;;;;0.70;0.70;;;7.30;74.60;;;6.91;58.67;95952.22;5015579;28;20198;-86
2022/03/17 08:23:08;;;;;;;0.60;0.60;;;7.40;74.70;;;7.08;58.62;95964.53;4998797;28;20292;-86
2022/03/17 08:25:36;;;;;;;0.50;0.50;;;7.50;74.80;;;7.18;58.85;95960.06;4998936;28;20236;-86
2022/03/17 08:28:03;;;;;;;0.50;0.50;;;7.50;74.70;;;7.32;58.79;95960.56;5013403;28;20220;-85
2022/03/17 08:30:32;;;;;;;0.60;0.60;;;7.60;74.80;;;7.51;58.61;95973.50;5002366;28;20201;-86
2022/03/17 08:33:00;;;;;;;0.60;0.60;;;7.80;75.00;;;7.51;58.64;95959.66;5018576;28;20195;-86
2022/03/17 08:35:27;;;;;;;0.70;0.70;;;7.90;74.80;;;7.74;58.40;95980.09;5002377;28;20267;-85
2022/03/17 08:37:57;;;;;;;0.50;0.50;;;8.00;74.80;;;7.72;58.46;95956.75;5014511;28;20201;-85
2022/03/17 08:40:24;;;;;;;0.50;0.50;;;8.10;74.60;;;7.83;58.30;95968.78;4999118;28;20224;-84
2022/03/17 08:42:51;;;;;;;0.50;0.50;;;8.20;74.60;;;8.02;58.45;95988.72;5015098;28;20599;-85
2022/03/17 08:50:50;;;;;;;0.60;0.60;;;8.50;74.80;;;8.34;57.99;95992.59;5003783;28;20259;-85
2022/03/17 08:53:17;;;;;;;0.70;0.70;;;8.60;74.90;;;8.44;58.14;95990.69;5014656;28;20229;-86
2022/03/17 08:55:44;;;;;;;0.60;0.60;;;8.70;75.00;;;8.57;57.95;95994.75;5009714;28;20204;-85
2022/03/17 08:58:12;;;;;;;0.60;0.60;;;8.70;75.00;;;8.65;57.98;95979.94;5013920;28;20190;-86
2022/03/17 09:00:40;;;;;;;0.60;0.60;;;8.90;75.00;;;8.83;58.18;95988.72;4998056;28;20600;-86
2022/03/17 09:03:08;;;;;;;0.60;0.60;;;9.00;75.10;;;8.97;57.99;95985.50;5016482;28;20216;-86
2022/03/17 09:05:36;;;;;;;0.60;0.60;;;9.10;75.20;;;9.03;57.87;95969.19;5011122;28;20212;-86
2022/03/17 09:08:06;;;;;;;0.70;0.70;;;9.20;75.20;;;9.25;57.69;95977.47;4998235;28;20228;-86
2022/03/17 09:10:40;;;;;;;0.55;0.55;;;9.30;75.30;;;9.34;57.78;95980.94;5002356;28;20262;-86
2022/03/17 09:13:08;;;;;;;0.60;0.60;;;9.40;75.10;;;9.49;57.83;95989.84;5018247;28;20195;-85
2022/03/17 09:15:40;;;;;;;0.60;0.60;;;9.60;75.10;;;9.57;57.60;95984.66;5012824;28;20236;-85
2022/03/17 09:18:11;;;;;;;0.50;0.50;;;9.70;75.10;;;9.74;57.44;95984.69;5018140;28;20196;-86
2022/03/17 09:20:40;;;;;;;0.70;0.70;;;9.80;75.00;;;9.88;57.54;95991.13;5034379;28;20204;-85
2022/03/17 09:23:08;;;;;;;0.50;0.50;;;9.90;75.00;;;9.86;57.67;95970.31;5013807;28;20205;-86
2022/03/17 09:25:36;;;;;;;0.50;0.50;;;10.00;73.60;;;10.04;57.32;95985.88;5009949;28;20224;-85
2022/03/17 09:28:04;;;;;;;0.60;0.60;;;10.10;73.50;;;10.07;57.32;95964.63;5017775;28;20302;-86
2022/03/17 09:30:34;;;;;;;0.80;0.80;;;10.30;73.60;;;10.32;57.23;95987.41;4997772;28;20205;-85
2022/03/17 09:33:03;;;;;;;0.70;0.70;;;10.40;73.60;;;10.38;57.17;95992.03;5016919;28;20279;-86
2022/03/17 09:35:30;;;;;;;0.60;0.60;;;10.50;73.30;;;10.50;57.10;95997.78;5009966;28;20200;-86
2022/03/17 09:38:01;;;;;;;0.60;0.60;;;10.60;73.20;;;10.51;57.15;95986.28;5026016;28;20231;-84
2022/03/17 09:40:28;;;;;;;0.70;0.70;;;10.60;73.00;;;10.68;57.00;96001.03;4997612;28;20188;-85
2022/03/17 09:43:18;;;;;;;0.60;0.60;;;10.70;73.00;;;10.77;56.67;96001.03;4989960;28;20287;-83
2022/03/17 09:45:45;;;;;;;0.60;0.60;;;10.80;72.80;;;10.85;56.46;96006.25;5015249;28;20258;-84
2022/03/17 09:48:17;;;;;;;0.50;0.50;;;10.90;72.70;;;10.91;56.29;96002.97;5003157;28;20225;-83
2022/03/17 09:50:47;;;;;;;0.70;0.70;;;11.00;72.40;;;10.88;56.37;95993.63;4997953;28;20200;-84
2022/03/17 09:53:14;;;;;;;0.55;0.55;;;11.10;72.50;;;11.03;56.13;96003.44;4997489;28;20188;-84
2022/03/17 09:55:43;;;;;;;0.60;0.60;;;11.20;72.40;;;11.11;55.98;96000.81;5017164;28;20200;-84
2022/03/17 09:58:11;;;;;;;0.70;0.70;;;11.20;72.20;;;11.19;55.83;95990.28;5001036;28;20188;-85
2022/03/17 10:00:48;;;;;;;0.50;0.50;;;11.30;72.10;;;11.27;55.68;95991.25;5014618;28;20279;-85
2022/03/17 10:03:22;;;;;;;0.60;0.60;;;11.30;71.90;;;11.32;55.12;95996.81;5013188;28;20216;-84
2022/03/17 10:05:50;;;;;;;0.52;0.52;;;11.40;71.50;;;11.44;54.99;96002.53;4987256;28;20188;-83
2022/03/17 10:08:23;;;;;;;0.70;0.70;;;11.50;71.30;;;11.48;54.20;95998.56;5012543;28;20592;-83
2022/03/17 10:10:54;;;;;;;0.52;0.52;;;11.60;70.70;;;11.51;54.04;95995.56;5029980;28;20251;-84
2022/03/17 10:13:25;;;;;;;0.50;0.50;;;11.60;71.30;;;11.46;53.83;95982.97;4997398;28;20221;-84
2022/03/17 10:16:20;;;;;;;0.50;0.50;;;11.70;70.10;;;11.58;53.62;96006.22;4985419;28;20223;-85
2022/03/17 10:19:08;;;;;;;0.50;0.50;;;11.70;69.30;;;11.67;53.57;96008.66;5005388;28;20302;-84
2022/03/17 10:21:37;;;;;;;0.50;0.50;;;11.80;69.60;;;11.76;53.61;96004.16;5010692;28;20272;-85
2022/03/17 10:24:08;;;;;;;0.60;0.60;;;11.80;69.80;;;11.73;53.21;95995.81;5002023;28;20208;-85
2022/03/17 10:26:41;;;;;;;0.70;0.70;;;11.90;69.40;;;11.94;52.95;96001.28;5011216;28;20242;-86
2022/03/17 10:29:19;;;;;;;0.70;0.70;;;12.00;69.70;;;12.03;52.78;96004.72;5019383;28;20213;-85
2022/03/17 10:31:58;;;;;;;0.60;0.60;;;12.00;69.20;;;12.14;52.54;96000.88;5016315;28;20198;-85
2022/03/17 10:34:46;;;;;;;0.60;0.60;;;12.10;68.90;;;12.19;52.29;96003.78;5029824;28;20330;-85
2022/03/17 10:37:22;;;;;;;0.50;0.50;;;12.30;68.80;;;12.29;51.76;96008.81;5029886;28;20251;-85
2022/03/17 10:39:54;;;;;;;0.50;0.50;;;12.40;68.50;;;12.35;51.14;96002.03;5016024;28;20223;-84
2022/03/17 10:42:27;;;;;;;0.65;0.65;;;12.40;67.70;;;12.32;51.40;95987.44;5001023;28;20189;-85
2022/03/17 10:45:05;;;;;;;0.60;0.60;;;12.50;68.30;;;12.39;51.54;95983.09;5012331;28;20671;-85
2022/03/17 10:47:42;;;;;;;0.60;0.60;;;12.50;68.50;;;12.59;51.44;95993.94;4988780;28;20303;-85
2022/03/17 10:50:22;;;;;;;0.60;0.60;;;12.60;68.20;;;12.69;51.07;96009.50;4998018;28;20220;-86
2022/03/17 10:53:00;;;;;;;0.55;0.55;;;12.70;67.70;;;12.70;50.60;95992.69;5025250;28;20191;-85
2022/03/17 10:55:33;;;;;;;0.60;0.60;;;12.80;67.30;;;12.80;50.33;96001.19;5028900;28;20255;-86
2022/03/17 10:58:20;;;;;;;0.68;0.68;;;12.80;67.50;;;12.84;50.08;95999.00;5019817;28;20217;-85